sensor_id;sensor_type;location;lat;lon;timestamp;pressure;altitude;pressure_sealevel;temperature;humidity
12146;BME280;6136;47.032;15.398;2022-12-20T00:01:30;98920.34;;;-1.42;100.00
12146;BME280;6136;47.032;15.398;2022-12-20T00:04:03;98923.00;;;-1.34;100.00
12146;BME280;6136;47.032;15.398;2022-12-20T00:06:33;98925.63;;;-1.30;100.00
12146;BME280;6136;47.032;15.398;2022-12-20T00:09:03;98916.97;;;-1.26;100.00
12146;BME280;6136;47.032;15.398;2022-12-20T00:11:32;98910.03;;;-1.27;100.00
12146;BME280;6136;47.032;15.398;2022-12-20T00:14:01;98909.97;;;-1.33;100.00
12146;BME280;6136;47.032;15.398;2022-12-20T00:16:29;98916.91;;;-1.33;100.00
12146;BME280;6136;47.032;15.398;2022-12-20T00:19:00;98913.44;;;-1.37;100.00
12146;BME280;6136;47.032;15.398;2022-12-20T00:21:30;98908.25;;;-1.35;100.00
12146;BME280;6136;47.032;15.398;2022-12-20T00:23:59;98902.13;;;-1.40;100.00
12146;BME280;6136;47.032;15.398;2022-12-20T00:26:29;98909.06;;;-1.42;100.00
12146;BME280;6136;47.032;15.398;2022-12-20T00:28:58;98905.66;;;-1.35;100.00
12146;BME280;6136;47.032;15.398;2022-12-20T00:31:28;98903.88;;;-1.39;100.00
12146;BME280;6136;47.032;15.398;2022-12-20T00:33:58;98899.56;;;-1.33;100.00
12146;BME280;6136;47.032;15.398;2022-12-20T00:36:29;98897.84;;;-1.37;100.00
12146;BME280;6136;47.032;15.398;2022-12-20T00:38:58;98897.72;;;-1.53;100.00
12146;BME280;6136;47.032;15.398;2022-12-20T00:41:29;98889.81;;;-1.67;100.00
12146;BME280;6136;47.032;15.398;2022-12-20T00:43:58;98890.75;;;-1.59;100.00
12146;BME280;6136;47.032;15.398;2022-12-20T00:46:26;98887.25;;;-1.61;100.00
12146;BME280;6136;47.032;15.398;2022-12-20T00:48:55;98886.34;;;-1.71;100.00
12146;BME280;6136;47.032;15.398;2022-12-20T00:51:25;98891.53;;;-1.72;100.00
12146;BME280;6136;47.032;15.398;2022-12-20T00:53:55;98892.34;;;-1.76;100.00
12146;BME280;6136;47.032;15.398;2022-12-20T00:56:24;98888.13;;;-1.61;100.00
12146;BME280;6136;47.032;15.398;2022-12-20T00:58:56;98882.13;;;-1.53;100.00
12146;BME280;6136;47.032;15.398;2022-12-20T01:01:27;98888.22;;;-1.50;100.00
12146;BME280;6136;47.032;15.398;2022-12-20T01:03:56;98883.94;;;-1.42;100.00
12146;BME280;6136;47.032;15.398;2022-12-20T01:06:25;98876.09;;;-1.48;100.00
12146;BME280;6136;47.032;15.398;2022-12-20T01:08:55;98874.38;;;-1.49;100.00
12146;BME280;6136;47.032;15.398;2022-12-20T01:11:24;98875.28;;;-1.41;100.00
12146;BME280;6136;47.032;15.398;2022-12-20T01:13:55;98870.16;;;-1.29;100.00
12146;BME280;6136;47.032;15.398;2022-12-20T01:16:26;98877.13;;;-1.26;100.00
12146;BME280;6136;47.032;15.398;2022-12-20T01:18:54;98880.56;;;-1.29;100.00
12146;BME280;6136;47.032;15.398;2022-12-20T01:21:24;98874.50;;;-1.28;100.00
12146;BME280;6136;47.032;15.398;2022-12-20T01:23:54;98878.84;;;-1.27;100.00
12146;BME280;6136;47.032;15.398;2022-12-20T01:26:25;98877.09;;;-1.25;100.00
12146;BME280;6136;47.032;15.398;2022-12-20T01:28:57;98872.78;;;-1.23;100.00
12146;BME280;6136;47.032;15.398;2022-12-20T01:31:27;98866.66;;;-1.31;100.00
12146;BME280;6136;47.032;15.398;2022-12-20T01:33:56;98865.78;;;-1.33;100.00
12146;BME280;6136;47.032;15.398;2022-12-20T01:36:26;98867.50;;;-1.38;100.00
12146;BME280;6136;47.032;15.398;2022-12-20T01:38:58;98866.63;;;-1.37;100.00
12146;BME280;6136;47.032;15.398;2022-12-20T01:41:27;98844.13;;;-1.32;100.00
12146;BME280;6136;47.032;15.398;2022-12-20T01:43:58;98846.72;;;-1.35;100.00
12146;BME280;6136;47.032;15.398;2022-12-20T01:46:28;98855.34;;;-1.40;100.00
12146;BME280;6136;47.032;15.398;2022-12-20T01:49:01;98852.69;;;-1.51;100.00
12146;BME280;6136;47.032;15.398;2022-12-20T01:51:35;98838.78;;;-1.54;100.00
12146;BME280;6136;47.032;15.398;2022-12-20T01:54:11;98838.84;;;-1.50;100.00
12146;BME280;6136;47.032;15.398;2022-12-20T01:56:42;98828.44;;;-1.47;100.00
12146;BME280;6136;47.032;15.398;2022-12-20T01:59:12;98830.19;;;-1.46;100.00
12146;BME280;6136;47.032;15.398;2022-12-20T02:01:41;98825.88;;;-1.39;100.00
12146;BME280;6136;47.032;15.398;2022-12-20T02:04:10;98826.75;;;-1.42;100.00
12146;BME280;6136;47.032;15.398;2022-12-20T02:06:39;98817.19;;;-1.44;100.00
12146;BME280;6136;47.032;15.398;2022-12-20T02:09:09;98813.69;;;-1.51;100.00
12146;BME280;6136;47.032;15.398;2022-12-20T02:11:52;98809.41;;;-1.43;100.00
12146;BME280;6136;47.032;15.398;2022-12-20T02:14:35;98813.78;;;-1.33;100.00
12146;BME280;6136;47.032;15.398;2022-12-20T02:17:14;98817.22;;;-1.40;100.00
12146;BME280;6136;47.032;15.398;2022-12-20T02:20:25;98812.91;;;-1.41;100.00
12146;BME280;6136;47.032;15.398;2022-12-20T02:26:09;98794.72;;;-1.36;100.00
12146;BME280;6136;47.032;15.398;2022-12-20T02:28:56;98797.28;;;-1.38;100.00
12146;BME280;6136;47.032;15.398;2022-12-20T02:31:35;98800.72;;;-1.45;100.00
12146;BME280;6136;47.032;15.398;2022-12-20T02:34:06;98792.03;;;-1.47;100.00
12146;BME280;6136;47.032;15.398;2022-12-20T02:36:36;98796.41;;;-1.40;100.00
12146;BME280;6136;47.032;15.398;2022-12-20T02:39:05;98774.72;;;-1.48;100.00
12146;BME280;6136;47.032;15.398;2022-12-20T02:41:36;98779.06;;;-1.44;100.00
12146;BME280;6136;47.032;15.398;2022-12-20T02:44:09;98766.94;;;-1.49;100.00
12146;BME280;6136;47.032;15.398;2022-12-20T02:47:00;98769.53;;;-1.40;100.00
12146;BME280;6136;47.032;15.398;2022-12-20T02:49:33;98776.50;;;-1.41;100.00
12146;BME280;6136;47.032;15.398;2022-12-20T02:52:04;98763.44;;;-1.53;100.00
12146;BME280;6136;47.032;15.398;2022-12-20T02:54:35;98772.13;;;-1.45;100.00
12146;BME280;6136;47.032;15.398;2022-12-20T02:57:08;98764.38;;;-1.42;100.00
12146;BME280;6136;47.032;15.398;2022-12-20T02:59:42;98745.28;;;-1.44;100.00
12146;BME280;6136;47.032;15.398;2022-12-20T03:02:13;98752.19;;;-1.49;100.00
12146;BME280;6136;47.032;15.398;2022-12-20T03:04:43;98776.50;;;-1.41;100.00
12146;BME280;6136;47.032;15.398;2022-12-20T03:07:13;98769.56;;;-1.42;100.00
12146;BME280;6136;47.032;15.398;2022-12-20T03:09:43;98764.34;;;-1.45;100.00
12146;BME280;6136;47.032;15.398;2022-12-20T03:12:14;98762.63;;;-1.37;100.00
12146;BME280;6136;47.032;15.398;2022-12-20T03:14:43;98755.72;;;-1.32;100.00
12146;BME280;6136;47.032;15.398;2022-12-20T03:17:14;98747.06;;;-1.35;100.00
12146;BME280;6136;47.032;15.398;2022-12-20T03:19:42;98760.91;;;-1.41;100.00
12146;BME280;6136;47.032;15.398;2022-12-20T03:22:10;98748.75;;;-1.42;100.00
12146;BME280;6136;47.032;15.398;2022-12-20T03:24:38;98758.31;;;-1.36;100.00
12146;BME280;6136;47.032;15.398;2022-12-20T03:27:10;98741.81;;;-1.40;100.00
12146;BME280;6136;47.032;15.398;2022-12-20T03:29:39;98745.31;;;-1.38;100.00
12146;BME280;6136;47.032;15.398;2022-12-20T03:32:07;98741.81;;;-1.43;100.00
12146;BME280;6136;47.032;15.398;2022-12-20T03:34:40;98747.06;;;-1.34;100.00
12146;BME280;6136;47.032;15.398;2022-12-20T03:37:10;98739.22;;;-1.43;100.00
12146;BME280;6136;47.032;15.398;2022-12-20T03:39:38;98746.19;;;-1.33;100.00
12146;BME280;6136;47.032;15.398;2022-12-20T03:42:07;98738.38;;;-1.36;100.00
12146;BME280;6136;47.032;15.398;2022-12-20T03:44:35;98739.22;;;-1.44;100.00
12146;BME280;6136;47.032;15.398;2022-12-20T03:47:04;98746.19;;;-1.33;100.00
12146;BME280;6136;47.032;15.398;2022-12-20T03:49:34;98729.69;;;-1.44;100.00
12146;BME280;6136;47.032;15.398;2022-12-20T03:52:04;98732.28;;;-1.44;100.00
12146;BME280;6136;47.032;15.398;2022-12-20T03:54:32;98733.16;;;-1.45;100.00
12146;BME280;6136;47.032;15.398;2022-12-20T03:57:08;98732.31;;;-1.35;100.00
12146;BME280;6136;47.032;15.398;2022-12-20T03:59:37;98726.28;;;-1.28;100.00
12146;BME280;6136;47.032;15.398;2022-12-20T04:02:08;98705.44;;;-1.43;100.00
12146;BME280;6136;47.032;15.398;2022-12-20T04:04:36;98724.50;;;-1.38;100.00
12146;BME280;6136;47.032;15.398;2022-12-20T04:07:06;98744.41;;;-1.40;100.00
12146;BME280;6136;47.032;15.398;2022-12-20T04:09:37;98739.25;;;-1.41;100.00
12146;BME280;6136;47.032;15.398;2022-12-20T04:12:10;98736.63;;;-1.40;100.00
12146;BME280;6136;47.032;15.398;2022-12-20T04:14:38;98743.59;;;-1.36;100.00
12146;BME280;6136;47.032;15.398;2022-12-20T04:17:07;98739.22;;;-1.40;100.00
12146;BME280;6136;47.032;15.398;2022-12-20T04:19:35;98721.00;;;-1.44;100.00
12146;BME280;6136;47.032;15.398;2022-12-20T04:22:06;98729.66;;;-1.56;100.00
12146;BME280;6136;47.032;15.398;2022-12-20T04:24:46;98729.59;;;-1.65;100.00
12146;BME280;6136;47.032;15.398;2022-12-20T04:27:22;98734.81;;;-1.61;100.00
12146;BME280;6136;47.032;15.398;2022-12-20T04:29:52;98731.28;;;-1.70;100.00
12146;BME280;6136;47.032;15.398;2022-12-20T04:32:21;98726.94;;;-1.76;100.00
12146;BME280;6136;47.032;15.398;2022-12-20T04:34:49;98716.53;;;-1.79;100.00
12146;BME280;6136;47.032;15.398;2022-12-20T04:37:20;98721.78;;;-1.68;100.00
12146;BME280;6136;47.032;15.398;2022-12-20T04:39:51;98712.31;;;-1.54;100.00
12146;BME280;6136;47.032;15.398;2022-12-20T04:42:41;98716.63;;;-1.54;100.00
12146;BME280;6136;47.032;15.398;2022-12-20T04:45:11;98730.56;;;-1.42;100.00
12146;BME280;6136;47.032;15.398;2022-12-20T04:47:40;98727.94;;;-1.45;100.00
12146;BME280;6136;47.032;15.398;2022-12-20T04:50:10;98722.72;;;-1.48;100.00
12146;BME280;6136;47.032;15.398;2022-12-20T04:52:42;98720.16;;;-1.39;100.00
12146;BME280;6136;47.032;15.398;2022-12-20T04:55:28;98708.91;;;-1.41;100.00
12146;BME280;6136;47.032;15.398;2022-12-20T04:57:57;98705.38;;;-1.52;100.00
12146;BME280;6136;47.032;15.398;2022-12-20T05:00:34;98701.94;;;-1.45;100.00
12146;BME280;6136;47.032;15.398;2022-12-20T05:03:13;98702.84;;;-1.41;100.00
12146;BME280;6136;47.032;15.398;2022-12-20T05:05:42;98708.03;;;-1.41;100.00
12146;BME280;6136;47.032;15.398;2022-12-20T05:08:11;98708.06;;;-1.29;100.00
12146;BME280;6136;47.032;15.398;2022-12-20T05:10:40;98707.19;;;-1.33;100.00
12146;BME280;6136;47.032;15.398;2022-12-20T05:13:09;98707.19;;;-1.36;100.00
12146;BME280;6136;47.032;15.398;2022-12-20T05:15:41;98691.53;;;-1.57;100.00
12146;BME280;6136;47.032;15.398;2022-12-20T05:18:10;98700.22;;;-1.46;100.00
12146;BME280;6136;47.032;15.398;2022-12-20T05:20:47;98708.03;;;-1.41;100.00
12146;BME280;6136;47.032;15.398;2022-12-20T05:23:37;98694.16;;;-1.39;100.00
12146;BME280;6136;47.032;15.398;2022-12-20T05:26:28;98684.63;;;-1.49;100.00
12146;BME280;6136;47.032;15.398;2022-12-20T05:28:57;98699.38;;;-1.42;100.00
12146;BME280;6136;47.032;15.398;2022-12-20T05:31:26;98692.41;;;-1.46;100.00
12146;BME280;6136;47.032;15.398;2022-12-20T05:33:54;98695.03;;;-1.43;100.00
12146;BME280;6136;47.032;15.398;2022-12-20T05:36:27;98690.69;;;-1.45;100.00
12146;BME280;6136;47.032;15.398;2022-12-20T05:38:58;98690.69;;;-1.44;100.00
12146;BME280;6136;47.032;15.398;2022-12-20T05:41:32;98692.44;;;-1.41;100.00
12146;BME280;6136;47.032;15.398;2022-12-20T05:44:01;98681.13;;;-1.57;100.00
12146;BME280;6136;47.032;15.398;2022-12-20T05:46:32;98695.91;;;-1.36;100.00
12146;BME280;6136;47.032;15.398;2022-12-20T05:49:04;98689.81;;;-1.46;100.00
12146;BME280;6136;47.032;15.398;2022-12-20T05:51:33;98694.19;;;-1.42;100.00
12146;BME280;6136;47.032;15.398;2022-12-20T05:54:12;98695.03;;;-1.37;100.00
12146;BME280;6136;47.032;15.398;2022-12-20T05:56:46;98697.66;;;-1.35;100.00
12146;BME280;6136;47.032;15.398;2022-12-20T05:59:19;98700.22;;;-1.46;100.00
12146;BME280;6136;47.032;15.398;2022-12-20T06:01:47;98685.50;;;-1.42;100.00
12146;BME280;6136;47.032;15.398;2022-12-20T06:04:15;98677.66;;;-1.47;100.00
12146;BME280;6136;47.032;15.398;2022-12-20T06:06:45;98680.28;;;-1.47;100.00
12146;BME280;6136;47.032;15.398;2022-12-20T06:09:18;98678.56;;;-1.42;100.00
12146;BME280;6136;47.032;15.398;2022-12-20T06:11:53;98670.78;;;-1.36;100.00
12146;BME280;6136;47.032;15.398;2022-12-20T06:14:22;98662.13;;;-1.41;100.00
12146;BME280;6136;47.032;15.398;2022-12-20T06:16:53;98663.81;;;-1.46;100.00
12146;BME280;6136;47.032;15.398;2022-12-20T06:19:21;98656.88;;;-1.53;100.00
12146;BME280;6136;47.032;15.398;2022-12-20T06:21:52;98669.84;;;-1.53;100.00
12146;BME280;6136;47.032;15.398;2022-12-20T06:24:30;98663.78;;;-1.58;100.00
12146;BME280;6136;47.032;15.398;2022-12-20T06:27:00;98679.38;;;-1.55;100.00
12146;BME280;6136;47.032;15.398;2022-12-20T06:29:29;98682.84;;;-1.54;100.00
12146;BME280;6136;47.032;15.398;2022-12-20T06:32:03;98681.19;;;-1.42;100.00
12146;BME280;6136;47.032;15.398;2022-12-20T06:34:32;98663.81;;;-1.52;100.00
12146;BME280;6136;47.032;15.398;2022-12-20T06:37:01;98680.31;;;-1.38;100.00
12146;BME280;6136;47.032;15.398;2022-12-20T06:39:33;98678.59;;;-1.28;100.00
12146;BME280;6136;47.032;15.398;2022-12-20T06:42:03;98676.84;;;-1.41;100.00
12146;BME280;6136;47.032;15.398;2022-12-20T06:44:34;98686.38;;;-1.31;100.00
12146;BME280;6136;47.032;15.398;2022-12-20T06:47:02;98693.31;;;-1.38;100.00
12146;BME280;6136;47.032;15.398;2022-12-20T06:49:30;98685.50;;;-1.41;100.00
12146;BME280;6136;47.032;15.398;2022-12-20T06:52:00;98690.69;;;-1.38;100.00
12146;BME280;6136;47.032;15.398;2022-12-20T06:54:55;98673.38;;;-1.31;100.00
12146;BME280;6136;47.032;15.398;2022-12-20T06:57:24;98675.94;;;-1.40;100.00
12146;BME280;6136;47.032;15.398;2022-12-20T06:59:53;98689.84;;;-1.31;100.00
12146;BME280;6136;47.032;15.398;2022-12-20T07:02:21;98691.59;;;-1.30;100.00
12146;BME280;6136;47.032;15.398;2022-12-20T07:04:53;98682.06;;;-1.28;100.00
12146;BME280;6136;47.032;15.398;2022-12-20T07:07:21;98676.00;;;-1.24;100.00
12146;BME280;6136;47.032;15.398;2022-12-20T07:09:49;98676.03;;;-1.21;100.00
12146;BME280;6136;47.032;15.398;2022-12-20T07:12:19;98669.94;;;-1.21;100.00
12146;BME280;6136;47.032;15.398;2022-12-20T07:14:47;98670.81;;;-1.14;100.00
12146;BME280;6136;47.032;15.398;2022-12-20T07:17:15;98675.16;;;-1.15;100.00
12146;BME280;6136;47.032;15.398;2022-12-20T07:19:43;98674.31;;;-1.14;100.00
12146;BME280;6136;47.032;15.398;2022-12-20T07:22:16;98676.03;;;-1.14;100.00
12146;BME280;6136;47.032;15.398;2022-12-20T07:24:45;98667.34;;;-1.23;100.00
12146;BME280;6136;47.032;15.398;2022-12-20T07:27:13;98669.94;;;-1.26;100.00
12146;BME280;6136;47.032;15.398;2022-12-20T07:29:43;98674.28;;;-1.20;100.00
12146;BME280;6136;47.032;15.398;2022-12-20T07:32:11;98684.69;;;-1.22;100.00
12146;BME280;6136;47.032;15.398;2022-12-20T07:34:40;98686.44;;;-1.14;100.00
12146;BME280;6136;47.032;15.398;2022-12-20T07:37:09;98695.09;;;-1.09;100.00
12146;BME280;6136;47.032;15.398;2022-12-20T07:39:37;98696.84;;;-1.11;100.00
12146;BME280;6136;47.032;15.398;2022-12-20T07:42:05;98698.56;;;-1.10;100.00
12146;BME280;6136;47.032;15.398;2022-12-20T07:44:40;98686.44;;;-1.21;100.00
12146;BME280;6136;47.032;15.398;2022-12-20T07:47:10;98677.75;;;-1.23;100.00
12146;BME280;6136;47.032;15.398;2022-12-20T07:49:38;98674.28;;;-1.23;100.00
12146;BME280;6136;47.032;15.398;2022-12-20T07:52:09;98671.69;;;-1.15;100.00
12146;BME280;6136;47.032;15.398;2022-12-20T07:54:41;98677.78;;;-1.13;100.00
12146;BME280;6136;47.032;15.398;2022-12-20T07:57:13;98667.38;;;-1.20;100.00
12146;BME280;6136;47.032;15.398;2022-12-20T07:59:46;98665.59;;;-1.18;100.00
12146;BME280;6136;47.032;15.398;2022-12-20T08:02:20;98657.78;;;-1.34;100.00
12146;BME280;6136;47.032;15.398;2022-12-20T08:04:51;98667.34;;;-1.24;100.00
12146;BME280;6136;47.032;15.398;2022-12-20T08:07:20;98669.94;;;-1.29;100.00
12146;BME280;6136;47.032;15.398;2022-12-20T08:09:48;98662.16;;;-1.13;100.00
12146;BME280;6136;47.032;15.398;2022-12-20T08:12:17;98672.59;;;-0.97;100.00
12146;BME280;6136;47.032;15.398;2022-12-20T08:14:47;98664.78;;;-1.12;100.00
12146;BME280;6136;47.032;15.398;2022-12-20T08:17:19;98672.56;;;-1.07;100.00
12146;BME280;6136;47.032;15.398;2022-12-20T08:19:47;98659.56;;;-1.06;100.00
12146;BME280;6136;47.032;15.398;2022-12-20T08:22:17;98647.44;;;-0.95;100.00
12146;BME280;6136;47.032;15.398;2022-12-20T08:24:46;98655.25;;;-1.01;100.00
12146;BME280;6136;47.032;15.398;2022-12-20T08:27:14;98666.50;;;-1.03;100.00
12146;BME280;6136;47.032;15.398;2022-12-20T08:29:42;98649.16;;;-1.10;100.00
12146;BME280;6136;47.032;15.398;2022-12-20T08:32:10;98643.94;;;-1.15;100.00
12146;BME280;6136;47.032;15.398;2022-12-20T08:34:41;98657.84;;;-1.07;100.00
12146;BME280;6136;47.032;15.398;2022-12-20T08:37:10;98660.44;;;-1.05;100.00
12146;BME280;6136;47.032;15.398;2022-12-20T08:39:41;98656.09;;;-0.96;100.00
12146;BME280;6136;47.032;15.398;2022-12-20T08:42:09;98639.66;;;-1.04;100.00
12146;BME280;6136;47.032;15.398;2022-12-20T08:44:37;98654.34;;;-1.03;100.00
12146;BME280;6136;47.032;15.398;2022-12-20T08:47:05;98655.25;;;-1.05;100.00
12146;BME280;6136;47.032;15.398;2022-12-20T08:49:33;98645.66;;;-1.19;100.00
12146;BME280;6136;47.032;15.398;2022-12-20T08:52:03;98654.34;;;-1.23;100.00
12146;BME280;6136;47.032;15.398;2022-12-20T08:54:31;98650.88;;;-1.29;100.00
12146;BME280;6136;47.032;15.398;2022-12-20T08:56:59;98640.47;;;-1.23;100.00
12146;BME280;6136;47.032;15.398;2022-12-20T08:59:27;98656.09;;;-1.02;100.00
12146;BME280;6136;47.032;15.398;2022-12-20T09:01:55;98636.16;;;-0.98;100.00
12146;BME280;6136;47.032;15.398;2022-12-20T09:04:24;98647.44;;;-0.96;100.00
12146;BME280;6136;47.032;15.398;2022-12-20T09:06:52;98645.69;;;-1.06;100.00
12146;BME280;6136;47.032;15.398;2022-12-20T09:09:22;98649.16;;;-1.10;100.00
12146;BME280;6136;47.032;15.398;2022-12-20T09:11:50;98636.16;;;-1.00;100.00
12146;BME280;6136;47.032;15.398;2022-12-20T09:14:18;98632.69;;;-0.96;100.00
12146;BME280;6136;47.032;15.398;2022-12-20T09:16:46;98646.56;;;-0.92;100.00
12146;BME280;6136;47.032;15.398;2022-12-20T09:19:14;98637.03;;;-0.98;100.00
12146;BME280;6136;47.032;15.398;2022-12-20T09:21:43;98648.31;;;-0.85;100.00
12146;BME280;6136;47.032;15.398;2022-12-20T09:24:11;98636.16;;;-0.94;100.00
12146;BME280;6136;47.032;15.398;2022-12-20T09:26:41;98635.28;;;-0.94;100.00
12146;BME280;6136;47.032;15.398;2022-12-20T09:29:11;98634.44;;;-0.84;100.00
12146;BME280;6136;47.032;15.398;2022-12-20T09:31:42;98634.44;;;-0.75;100.00
12146;BME280;6136;47.032;15.398;2022-12-20T09:34:10;98640.50;;;-0.85;100.00
12146;BME280;6136;47.032;15.398;2022-12-20T09:36:39;98637.03;;;-0.90;100.00
12146;BME280;6136;47.032;15.398;2022-12-20T09:39:07;98630.97;;;-0.77;100.00
12146;BME280;6136;47.032;15.398;2022-12-20T09:41:37;98630.97;;;-0.77;100.00
12146;BME280;6136;47.032;15.398;2022-12-20T09:44:13;98626.63;;;-0.67;100.00
12146;BME280;6136;47.032;15.398;2022-12-20T09:46:43;98622.28;;;-0.64;100.00
12146;BME280;6136;47.032;15.398;2022-12-20T09:49:14;98621.41;;;-0.69;100.00
12146;BME280;6136;47.032;15.398;2022-12-20T09:51:58;98613.59;;;-0.66;100.00
12146;BME280;6136;47.032;15.398;2022-12-20T09:54:33;98616.22;;;-0.80;100.00
12146;BME280;6136;47.032;15.398;2022-12-20T09:57:10;98600.59;;;-0.76;100.00
12146;BME280;6136;47.032;15.398;2022-12-20T09:59:46;98606.66;;;-0.79;100.00
12146;BME280;6136;47.032;15.398;2022-12-20T10:02:19;98603.19;;;-0.63;100.00
12146;BME280;6136;47.032;15.398;2022-12-20T10:05:12;98605.78;;;-0.57;100.00
12146;BME280;6136;47.032;15.398;2022-12-20T10:07:48;98609.25;;;-0.73;100.00
12146;BME280;6136;47.032;15.398;2022-12-20T10:10:38;98613.63;;;-0.84;100.00
12146;BME280;6136;47.032;15.398;2022-12-20T10:13:21;98604.94;;;-0.83;100.00
12146;BME280;6136;47.032;15.398;2022-12-20T10:15:58;98600.63;;;-0.84;100.00
12146;BME280;6136;47.032;15.398;2022-12-20T10:18:38;98601.47;;;-0.81;100.00
12146;BME280;6136;47.032;15.398;2022-12-20T10:21:19;98600.63;;;-0.84;100.00
12146;BME280;6136;47.032;15.398;2022-12-20T10:23:58;98599.72;;;-0.95;100.00
12146;BME280;6136;47.032;15.398;2022-12-20T10:26:28;98592.78;;;-1.02;100.00
12146;BME280;6136;47.032;15.398;2022-12-20T10:28:56;98591.94;;;-0.86;100.00
12146;BME280;6136;47.032;15.398;2022-12-20T10:31:26;98584.16;;;-0.97;100.00
12146;BME280;6136;47.032;15.398;2022-12-20T10:33:54;98577.19;;;-0.92;100.00
12146;BME280;6136;47.032;15.398;2022-12-20T10:36:24;98579.78;;;-0.93;100.00
12146;BME280;6136;47.032;15.398;2022-12-20T10:38:54;98567.66;;;-0.96;100.00
12146;BME280;6136;47.032;15.398;2022-12-20T10:41:24;98562.47;;;-1.08;100.00
12146;BME280;6136;47.032;15.398;2022-12-20T10:43:57;98551.19;;;-1.24;100.00
12146;BME280;6136;47.032;15.398;2022-12-20T10:46:39;98543.41;;;-1.27;100.00
12146;BME280;6136;47.032;15.398;2022-12-20T10:49:27;98538.19;;;-1.28;100.00
12146;BME280;6136;47.032;15.398;2022-12-20T10:51:59;98536.47;;;-1.12;100.00
12146;BME280;6136;47.032;15.398;2022-12-20T10:54:32;98527.81;;;-1.11;100.00
12146;BME280;6136;47.032;15.398;2022-12-20T10:57:03;98519.97;;;-1.16;100.00
12146;BME280;6136;47.032;15.398;2022-12-20T10:59:43;98519.13;;;-1.20;100.00
12146;BME280;6136;47.032;15.398;2022-12-20T11:02:28;98526.03;;;-1.09;100.00
12146;BME280;6136;47.032;15.398;2022-12-20T11:05:20;98530.41;;;-1.13;100.00
12146;BME280;6136;47.032;15.398;2022-12-20T11:07:53;98515.63;;;-1.09;100.00
12146;BME280;6136;47.032;15.398;2022-12-20T11:10:43;98514.78;;;-1.04;100.00
12146;BME280;6136;47.032;15.398;2022-12-20T11:13:20;98510.44;;;-1.15;100.00
12146;BME280;6136;47.032;15.398;2022-12-20T11:15:50;98490.50;;;-1.17;100.00
12146;BME280;6136;47.032;15.398;2022-12-20T11:18:29;98496.59;;;-1.11;100.00
12146;BME280;6136;47.032;15.398;2022-12-20T11:21:11;98487.91;;;-1.17;100.00
12146;BME280;6136;47.032;15.398;2022-12-20T11:23:57;98496.56;;;-1.16;100.00
12146;BME280;6136;47.032;15.398;2022-12-20T11:26:40;98487.94;;;-1.21;100.00
12146;BME280;6136;47.032;15.398;2022-12-20T11:29:23;98481.84;;;-1.22;100.00
12146;BME280;6136;47.032;15.398;2022-12-20T11:31:59;98468.84;;;-1.14;100.00
12146;BME280;6136;47.032;15.398;2022-12-20T11:34:38;98484.41;;;-1.02;100.00
12146;BME280;6136;47.032;15.398;2022-12-20T11:37:19;98474.91;;;-1.04;100.00
12146;BME280;6136;47.032;15.398;2022-12-20T11:40:14;98469.69;;;-0.89;100.00
12146;BME280;6136;47.032;15.398;2022-12-20T11:42:56;98460.09;;;-0.87;100.00
12146;BME280;6136;47.032;15.398;2022-12-20T11:45:30;98453.19;;;-0.90;100.00
12146;BME280;6136;47.032;15.398;2022-12-20T11:48:32;98461.84;;;-0.88;100.00
12146;BME280;6136;47.032;15.398;2022-12-20T11:51:19;98457.50;;;-0.84;100.00
12146;BME280;6136;47.032;15.398;2022-12-20T11:53:59;98452.31;;;-0.90;100.00
12146;BME280;6136;47.032;15.398;2022-12-20T11:56:34;98449.72;;;-0.90;100.00
12146;BME280;6136;47.032;15.398;2022-12-20T11:59:18;98441.88;;;-0.87;100.00
12146;BME280;6136;47.032;15.398;2022-12-20T12:01:52;98448.81;;;-0.77;100.00
12146;BME280;6136;47.032;15.398;2022-12-20T12:04:25;98450.56;;;-0.88;100.00
12146;BME280;6136;47.032;15.398;2022-12-20T12:07:00;98449.72;;;-0.93;100.00
12146;BME280;6136;47.032;15.398;2022-12-20T12:09:33;98436.72;;;-0.95;100.00
12146;BME280;6136;47.032;15.398;2022-12-20T12:12:09;98439.31;;;-0.92;100.00
12146;BME280;6136;47.032;15.398;2022-12-20T12:14:47;98427.16;;;-0.82;100.00
12146;BME280;6136;47.032;15.398;2022-12-20T12:17:24;98433.22;;;-0.83;100.00
12146;BME280;6136;47.032;15.398;2022-12-20T12:20:05;98435.00;;;-1.00;100.00
12146;BME280;6136;47.032;15.398;2022-12-20T12:22:37;98434.19;;;-1.13;100.00
12146;BME280;6136;47.032;15.398;2022-12-20T12:25:12;98429.84;;;-1.25;100.00
12146;BME280;6136;47.032;15.398;2022-12-20T12:27:42;98434.19;;;-1.31;100.00
12146;BME280;6136;47.032;15.398;2022-12-20T12:30:12;98427.22;;;-1.15;100.00
12146;BME280;6136;47.032;15.398;2022-12-20T12:32:43;98426.38;;;-1.14;100.00
12146;BME280;6136;47.032;15.398;2022-12-20T12:35:45;98429.81;;;-1.08;100.00
12146;BME280;6136;47.032;15.398;2022-12-20T12:38:43;98427.19;;;-1.03;100.00
12146;BME280;6136;47.032;15.398;2022-12-20T12:42:06;98429.81;;;-0.99;100.00
12146;BME280;6136;47.032;15.398;2022-12-20T12:44:44;98415.97;;;-1.14;100.00
12146;BME280;6136;47.032;15.398;2022-12-20T12:47:18;98409.91;;;-1.15;100.00
12146;BME280;6136;47.032;15.398;2022-12-20T12:49:50;98409.91;;;-1.15;100.00
12146;BME280;6136;47.032;15.398;2022-12-20T12:52:32;98415.03;;;-0.94;100.00
12146;BME280;6136;47.032;15.398;2022-12-20T12:55:41;98416.78;;;-0.90;100.00
12146;BME280;6136;47.032;15.398;2022-12-20T12:59:08;98428.91;;;-0.96;100.00
12146;BME280;6136;47.032;15.398;2022-12-20T13:01:48;98427.16;;;-0.96;100.00
12146;BME280;6136;47.032;15.398;2022-12-20T13:04:25;98424.56;;;-0.94;100.00
12146;BME280;6136;47.032;15.398;2022-12-20T13:06:57;98431.50;;;-0.83;100.00
12146;BME280;6136;47.032;15.398;2022-12-20T13:09:40;98428.03;;;-0.86;100.00
12146;BME280;6136;47.032;15.398;2022-12-20T13:15:47;98435.84;;;-0.92;100.00
12146;BME280;6136;47.032;15.398;2022-12-20T13:18:21;98421.94;;;-0.85;100.00
12146;BME280;6136;47.032;15.398;2022-12-20T13:21:34;98421.09;;;-0.96;100.00
12146;BME280;6136;47.032;15.398;2022-12-20T13:24:37;98418.50;;;-0.92;100.00
12146;BME280;6136;47.032;15.398;2022-12-20T13:27:22;98432.41;;;-1.06;100.00
12146;BME280;6136;47.032;15.398;2022-12-20T13:29:55;98421.16;;;-1.14;100.00